createdAt,value
2023-04-02T00:01:55.093Z,98069.63
2023-04-02T00:04:30.803Z,98069.27
2023-04-02T00:07:30.866Z,98074.13
2023-04-02T00:10:02.489Z,98074.27
2023-04-02T00:12:33.243Z,98074.41
2023-04-02T00:15:04.394Z,98074.92
2023-04-02T00:17:35.169Z,98078.18
2023-04-02T00:20:10.142Z,98078.77
2023-04-02T00:22:46.252Z,98079.65
2023-04-02T00:25:17.517Z,98082.31
2023-04-02T00:27:49.093Z,98081.98
2023-04-02T00:30:19.718Z,98085.14
2023-04-02T00:32:50.849Z,98084.29
2023-04-02T00:35:26.172Z,98086.90
2023-04-02T00:37:57.963Z,98084.64
2023-04-02T00:40:31.182Z,98082.94
2023-04-02T00:43:04.436Z,98091.84
2023-04-02T00:45:38.716Z,98090.92
2023-04-02T00:48:37.879Z,98092.71
2023-04-02T00:51:17.203Z,98094.28
2023-04-02T00:53:50.456Z,98091.86
2023-04-02T00:56:26.674Z,98094.46
2023-04-02T00:58:58.530Z,98099.06
2023-04-02T01:01:36.750Z,98099.30
2023-04-02T01:04:27.079Z,98099.58
2023-04-02T01:06:58.572Z,98101.40
2023-04-02T01:09:46.190Z,98099.15
2023-04-02T01:12:33.901Z,98098.57
2023-04-02T01:15:12.811Z,98099.88
2023-04-02T01:18:00.926Z,98099.37
2023-04-02T01:21:10.592Z,98103.45
2023-04-02T01:23:54.032Z,98102.66
2023-04-02T01:26:37.711Z,98103.02
2023-04-02T01:29:14.006Z,98105.35
2023-04-02T01:31:46.205Z,98103.73
2023-04-02T01:34:19.761Z,98107.67
2023-04-02T01:37:01.429Z,98113.74
2023-04-02T01:39:42.739Z,98114.17
2023-04-02T01:42:20.299Z,98115.64
2023-04-02T01:44:53.637Z,98118.25
2023-04-02T01:47:28.847Z,98116.21
2023-04-02T01:50:03.653Z,98121.20
2023-04-02T01:52:42.493Z,98123.23
2023-04-02T01:55:16.144Z,98123.73
2023-04-02T01:57:51.096Z,98122.50
2023-04-02T02:00:23.789Z,98129.86
2023-04-02T02:02:55.229Z,98133.34
2023-04-02T02:05:27.163Z,98133.09
2023-04-02T02:08:01.340Z,98135.02
2023-04-02T02:10:37.734Z,98133.81
2023-04-02T02:13:08.412Z,98140.14
2023-04-02T02:15:39.178Z,98141.01
2023-04-02T02:18:12.545Z,98141.89
2023-04-02T02:20:44.554Z,98144.29
2023-04-02T02:23:16.311Z,98140.38
2023-04-02T02:25:48.537Z,98141.05
2023-04-02T02:28:22.722Z,98146.27
2023-04-02T02:30:58.953Z,98148.35
2023-04-02T02:33:33.857Z,98150.04
2023-04-02T02:36:07.451Z,98146.48
2023-04-02T02:38:54.429Z,98152.05
2023-04-02T02:41:31.644Z,98154.82
2023-04-02T02:44:07.613Z,98154.25
2023-04-02T02:46:41.727Z,98154.36
2023-04-02T02:49:17.560Z,98155.89
2023-04-02T02:51:55.205Z,98159.36
2023-04-02T02:54:27.774Z,98166.02
2023-04-02T02:57:02.408Z,98168.14
2023-04-02T02:59:34.284Z,98168.10
2023-04-02T03:02:06.985Z,98170.35
2023-04-02T03:04:41.907Z,98173.05
2023-04-02T03:07:13.567Z,98174.95
2023-04-02T03:09:52.288Z,98173.88
2023-04-02T03:12:37.709Z,98178.08
2023-04-02T03:15:19.793Z,98177.75
2023-04-02T03:17:57.318Z,98180.89
2023-04-02T03:20:36.486Z,98180.23
2023-04-02T03:23:18.380Z,98177.81
2023-04-02T03:25:56.434Z,98178.15
2023-04-02T03:28:32.095Z,98182.05
2023-04-02T03:31:07.016Z,98184.08
2023-04-02T03:33:44.606Z,98188.48
2023-04-02T03:36:23.001Z,98188.88
2023-04-02T03:39:01.548Z,98192.88
2023-04-02T03:41:40.433Z,98197.22
2023-04-02T03:44:22.250Z,98201.69
2023-04-02T03:46:57.681Z,98207.02
2023-04-02T03:49:35.052Z,98208.61
2023-04-02T03:52:11.904Z,98214.29
2023-04-02T03:54:54.030Z,98216.32
2023-04-02T03:57:33.152Z,98220.36
2023-04-02T04:00:09.228Z,98224.00
2023-04-02T04:02:45.436Z,98226.91
2023-04-02T04:05:29.824Z,98231.54
2023-04-02T04:08:04.738Z,98236.67
2023-04-02T04:10:39.652Z,98238.83
2023-04-02T04:13:16.362Z,98245.34
2023-04-02T04:15:56.116Z,98250.58
2023-04-02T04:18:37.950Z,98249.48
2023-04-02T04:21:16.817Z,98252.77
2023-04-02T04:23:53.214Z,98260.58
2023-04-02T04:26:31.190Z,98263.80
2023-04-02T04:29:12.489Z,98268.09
2023-04-02T04:31:49.542Z,98275.60
2023-04-02T04:34:25.337Z,98275.79
2023-04-02T04:37:01.876Z,98283.64
2023-04-02T04:39:42.085Z,98286.58
2023-04-02T04:42:19.336Z,98288.38
2023-04-02T04:44:56.917Z,98296.58
2023-04-02T04:47:34.982Z,98295.71
2023-04-02T04:50:11.234Z,98301.81
2023-04-02T04:52:43.917Z,98306.73
2023-04-02T04:55:31.499Z,98312.45
2023-04-02T04:58:12.993Z,98315.24
2023-04-02T05:00:52.760Z,98320.83
2023-04-02T05:03:33.066Z,98326.23
2023-04-02T05:06:13.596Z,98333.48
2023-04-02T05:08:50.325Z,98335.90
2023-04-02T05:11:29.228Z,98339.97
2023-04-02T05:14:03.227Z,98342.83
2023-04-02T05:16:39.954Z,98349.52
2023-04-02T05:19:18.479Z,98351.15
2023-04-02T05:21:55.948Z,98357.98
2023-04-02T05:24:43.856Z,98360.04
2023-04-02T05:27:25.893Z,98361.81
2023-04-02T05:30:04.085Z,98365.20
2023-04-02T05:32:37.969Z,98369.61
2023-04-02T05:35:08.655Z,98377.95
2023-04-02T05:37:42.242Z,98382.42
2023-04-02T05:40:21.460Z,98385.48
2023-04-02T05:42:55.811Z,98388.89
2023-04-02T05:45:35.793Z,98393.76
2023-04-02T05:48:21.616Z,98399.88
2023-04-02T05:50:55.561Z,98408.29
2023-04-02T05:53:26.839Z,98410.64
2023-04-02T05:56:03.897Z,98417.23
2023-04-02T05:58:41.976Z,98418.70
2023-04-02T06:01:29.448Z,98422.66
2023-04-02T06:04:08.665Z,98423.75
2023-04-02T06:07:04.609Z,98430.19
2023-04-02T06:09:43.247Z,98434.98
2023-04-02T06:12:26.146Z,98435.82
2023-04-02T06:14:57.357Z,98444.07
2023-04-02T06:17:28.496Z,98449.35
2023-04-02T06:20:01.556Z,98455.08
2023-04-02T06:22:40.499Z,98459.78
2023-04-02T06:25:17.092Z,98461.00
2023-04-02T06:27:50.465Z,98478.25
2023-04-02T06:30:26.097Z,98482.13
2023-04-02T06:32:58.715Z,98482.71
2023-04-02T06:35:29.858Z,98488.88
2023-04-02T06:38:06.016Z,98488.87
2023-04-02T06:40:43.567Z,98491.00
2023-04-02T06:43:20.133Z,98495.78
2023-04-02T06:45:53.421Z,98503.36
2023-04-02T06:48:26.575Z,98511.60
2023-04-02T06:51:01.907Z,98520.38
2023-04-02T06:53:37.622Z,98519.02
2023-04-02T06:56:20.243Z,98531.07
2023-04-02T06:58:51.468Z,98538.19
2023-04-02T07:01:26.650Z,98541.20
2023-04-02T07:03:57.771Z,98548.70
2023-04-02T07:06:28.628Z,98552.36
2023-04-02T07:08:59.486Z,98557.79
2023-04-02T07:11:30.536Z,98562.52
2023-04-02T07:14:01.529Z,98565.95
2023-04-02T07:16:34.197Z,98576.66
2023-04-02T07:19:05.425Z,98578.21
2023-04-02T07:21:36.164Z,98586.58
2023-04-02T07:24:08.027Z,98596.46
2023-04-02T07:26:39.166Z,98601.36
2023-04-02T07:29:14.937Z,98607.54
2023-04-02T07:31:46.209Z,98609.12
2023-04-02T07:34:17.101Z,98616.73
2023-04-02T07:36:49.374Z,98626.23
2023-04-02T07:39:20.216Z,98632.39
2023-04-02T07:41:58.807Z,98635.88
2023-04-02T07:44:29.984Z,98637.27
2023-04-02T07:47:01.398Z,98640.58
2023-04-02T07:49:32.587Z,98647.20
2023-04-02T07:52:03.806Z,98651.11
2023-04-02T07:54:35.926Z,98656.92
2023-04-02T07:57:07.172Z,98661.46
2023-04-02T07:59:37.974Z,98654.29
2023-04-02T08:02:16.240Z,98665.83
2023-04-02T08:04:47.044Z,98666.40
2023-04-02T08:07:18.893Z,98673.52
2023-04-02T08:09:49.881Z,98682.25
2023-04-02T08:12:20.738Z,98689.45
2023-04-02T08:14:51.504Z,98696.93
2023-04-02T08:17:22.280Z,98707.05
2023-04-02T08:19:55.228Z,98705.42
2023-04-02T08:22:27.761Z,98715.46
2023-04-02T08:24:58.683Z,98724.54
2023-04-02T08:27:29.935Z,98734.45
2023-04-02T08:30:01.028Z,98735.95
2023-04-02T08:32:31.910Z,98745.14
2023-04-02T08:35:02.800Z,98748.08
2023-04-02T08:37:33.600Z,98750.17
2023-04-02T08:40:04.942Z,98754.68
2023-04-02T08:42:42.520Z,98760.70
2023-04-02T08:45:25.721Z,98760.40
2023-04-02T08:48:00.063Z,98762.71
2023-04-02T08:50:35.663Z,98770.84
2023-04-02T08:53:11.615Z,98772.83
2023-04-02T08:55:47.924Z,98776.13
2023-04-02T08:58:30.878Z,98782.92
2023-04-02T09:01:04.537Z,98786.64
2023-04-02T09:03:41.669Z,98792.71
2023-04-02T09:06:17.555Z,98795.27
2023-04-02T09:08:51.881Z,98800.93
2023-04-02T09:11:27.434Z,98803.35
2023-04-02T09:14:00.376Z,98811.63
2023-04-02T09:16:44.601Z,98812.33
2023-04-02T09:19:21.915Z,98820.73
2023-04-02T09:22:02.234Z,98823.48
2023-04-02T09:24:33.011Z,98826.63
2023-04-02T09:27:03.915Z,98831.63
2023-04-02T09:29:46.572Z,98838.72
2023-04-02T09:32:43.469Z,98846.61
2023-04-02T09:35:26.150Z,98861.15
2023-04-02T09:38:22.812Z,98864.49
2023-04-02T09:40:59.597Z,98879.96
2023-04-02T09:43:31.909Z,98887.58
2023-04-02T09:46:05.063Z,98893.00
2023-04-02T09:48:39.396Z,98904.13
2023-04-02T09:51:20.253Z,98909.42
2023-04-02T09:53:52.744Z,98914.79
2023-04-02T09:56:26.706Z,98921.21
2023-04-02T09:59:08.873Z,98921.02
2023-04-02T10:01:41.622Z,98928.59
2023-04-02T10:04:38.860Z,98927.65
2023-04-02T10:07:30.818Z,98936.31
2023-04-02T10:10:04.542Z,98938.85
2023-04-02T10:12:41.903Z,98943.65
2023-04-02T10:15:21.999Z,98949.17
2023-04-02T10:17:58.768Z,98950.45
2023-04-02T10:20:39.081Z,98955.73
2023-04-02T10:23:19.046Z,98952.73
2023-04-02T10:25:56.333Z,98952.81
2023-04-02T10:28:38.424Z,98954.48
2023-04-02T10:31:20.376Z,98969.07
2023-04-02T10:33:59.130Z,98973.84
2023-04-02T10:36:45.116Z,98979.70
2023-04-02T10:39:15.251Z,98981.41
2023-04-02T10:41:57.291Z,98985.30
2023-04-02T10:44:56.537Z,98992.17
2023-04-02T10:47:39.566Z,98994.84
2023-04-02T10:50:29.576Z,98999.48
2023-04-02T10:53:10.630Z,99000.88
2023-04-02T10:55:45.955Z,99009.02
2023-04-02T10:58:24.628Z,99009.67
2023-04-02T11:01:00.740Z,99016.98
2023-04-02T11:03:37.897Z,99016.84
2023-04-02T11:06:18.497Z,99021.48
2023-04-02T11:08:51.940Z,99022.09
2023-04-02T11:11:26.554Z,99023.10
2023-04-02T11:14:02.757Z,99027.93
2023-04-02T11:16:37.208Z,99031.63
2023-04-02T11:19:26.212Z,99041.27
2023-04-02T11:21:59.469Z,99042.63
2023-04-02T11:24:43.771Z,99040.67
2023-04-02T11:27:23.757Z,99045.91
2023-04-02T11:30:00.058Z,99054.74
2023-04-02T11:32:49.623Z,99055.48
2023-04-02T11:35:40.716Z,99064.40
2023-04-02T11:38:46.520Z,99069.38
2023-04-02T11:41:37.419Z,99078.58
2023-04-02T11:44:23.071Z,99083.34
2023-04-02T11:46:54.653Z,99091.71
2023-04-02T11:49:40.501Z,99097.13
2023-04-02T11:52:30.804Z,99099.36
2023-04-02T11:55:22.392Z,99107.90
2023-04-02T11:58:10.562Z,99111.95
2023-04-02T12:01:03.501Z,99118.36
2023-04-02T12:03:55.233Z,99123.90
2023-04-02T12:06:39.816Z,99122.32
2023-04-02T12:09:22.534Z,99119.52
2023-04-02T12:11:55.627Z,99127.26
2023-04-02T12:14:46.937Z,99127.89
2023-04-02T12:17:25.223Z,99128.95
2023-04-02T12:19:58.567Z,99131.77
2023-04-02T12:22:31.469Z,99131.08
2023-04-02T12:25:06.013Z,99133.38
2023-04-02T12:27:38.197Z,99131.41
2023-04-02T12:30:19.509Z,99133.30
2023-04-02T12:32:50.867Z,99135.81
2023-04-02T12:35:31.998Z,99144.55
2023-04-02T12:38:04.265Z,99148.90
2023-04-02T12:40:35.682Z,99156.04
2023-04-02T12:43:06.756Z,99160.48
2023-04-02T12:45:37.911Z,99160.08
2023-04-02T12:48:12.454Z,99161.66
2023-04-02T12:50:43.618Z,99162.66
2023-04-02T12:53:22.696Z,99161.58
2023-04-02T12:55:55.209Z,99163.79
2023-04-02T12:58:31.488Z,99165.52
2023-04-02T13:01:19.496Z,99162.36
2023-04-02T13:04:05.186Z,99164.45
2023-04-02T13:06:37.320Z,99167.94
2023-04-02T13:09:28.716Z,99170.86
2023-04-02T13:12:00.471Z,99175.64
2023-04-02T13:14:32.153Z,99173.88
2023-04-02T13:17:03.155Z,99177.67
2023-04-02T13:19:35.880Z,99186.23
2023-04-02T13:22:20.478Z,99193.02
2023-04-02T13:24:51.486Z,99197.48
2023-04-02T13:27:22.607Z,99198.70
2023-04-02T13:29:53.447Z,99201.33
2023-04-02T13:32:24.258Z,99203.94
2023-04-02T13:34:55.046Z,99202.27
2023-04-02T13:37:26.285Z,99207.38
2023-04-02T13:39:57.343Z,99210.59
2023-04-02T13:42:28.180Z,99211.95
2023-04-02T13:44:59.235Z,99217.89
2023-04-02T13:47:30.087Z,99223.55
2023-04-02T13:50:01.021Z,99229.95
2023-04-02T13:52:32.058Z,99235.56
2023-04-02T13:55:03.616Z,99238.10
2023-04-02T13:57:35.302Z,99241.51
2023-04-02T14:00:07.246Z,99245.77
2023-04-02T14:02:43.680Z,99248.88
2023-04-02T14:05:26.031Z,99250.27
2023-04-02T14:08:09.230Z,99257.97
2023-04-02T14:10:54.719Z,99267.71
2023-04-02T14:13:44.458Z,99272.66
2023-04-02T14:16:41.870Z,99276.20
2023-04-02T14:19:27.817Z,99277.38
2023-04-02T14:22:14.019Z,99283.14
2023-04-02T14:24:54.085Z,99286.36
2023-04-02T14:27:40.392Z,99292.26
2023-04-02T14:30:18.599Z,99296.01
2023-04-02T14:32:59.304Z,99296.33
2023-04-02T14:35:35.226Z,99306.90
2023-04-02T14:38:18.812Z,99313.20
2023-04-02T14:40:53.572Z,99314.29
2023-04-02T14:43:29.378Z,99320.42
2023-04-02T14:46:03.167Z,99320.98
2023-04-02T14:48:46.243Z,99325.69
2023-04-02T14:51:24.904Z,99326.31
2023-04-02T14:54:04.837Z,99334.05
2023-04-02T14:56:37.467Z,99333.23
2023-04-02T14:59:24.880Z,99335.79
2023-04-02T15:01:59.432Z,99339.65
2023-04-02T15:04:34.986Z,99340.45
2023-04-02T15:07:13.647Z,99341.41
2023-04-02T15:09:48.441Z,99351.34
2023-04-02T15:12:24.866Z,99349.71
2023-04-02T15:14:59.554Z,99349.13
2023-04-02T15:17:31.118Z,99351.63
2023-04-02T15:20:15.312Z,99348.11
2023-04-02T15:22:57.255Z,99353.81
2023-04-02T15:25:37.965Z,99358.73
2023-04-02T15:28:22.759Z,99363.40
2023-04-02T15:30:58.986Z,99364.99
2023-04-02T15:33:45.142Z,99368.20
2023-04-02T15:36:39.017Z,99370.04
2023-04-02T15:39:24.760Z,99370.16
2023-04-02T15:42:05.267Z,99374.90
2023-04-02T15:44:41.591Z,99380.94
2023-04-02T15:47:23.972Z,99382.27
2023-04-02T15:50:03.511Z,99382.14
2023-04-02T15:52:44.698Z,99386.63
2023-04-02T15:55:28.014Z,99388.90
2023-04-02T15:58:20.778Z,99389.91
2023-04-02T16:01:03.677Z,99387.92
2023-04-02T16:03:50.644Z,99396.67
2023-04-02T16:06:32.554Z,99398.85
2023-04-02T16:09:15.441Z,99399.81
2023-04-02T16:11:46.950Z,99405.81
2023-04-02T16:14:26.079Z,99409.48
2023-04-02T16:17:03.887Z,99415.08
2023-04-02T16:19:43.481Z,99416.79
2023-04-02T16:22:21.557Z,99419.59
2023-04-02T16:25:02.218Z,99424.98
2023-04-02T16:27:39.558Z,99426.42
2023-04-02T16:30:28.036Z,99424.96
2023-04-02T16:33:12.098Z,99425.60
2023-04-02T16:35:51.783Z,99428.97
2023-04-02T16:38:40.781Z,99435.48
2023-04-02T16:41:20.488Z,99440.25
2023-04-02T16:43:59.198Z,99443.05
2023-04-02T16:46:41.006Z,99446.58
2023-04-02T16:49:24.941Z,99451.97
2023-04-02T16:52:04.010Z,99455.29
2023-04-02T16:54:46.180Z,99459.41
2023-04-02T16:57:27.150Z,99458.77
2023-04-02T17:00:06.977Z,99461.59
2023-04-02T17:02:51.322Z,99465.08
2023-04-02T17:05:34.163Z,99466.48
2023-04-02T17:08:18.582Z,99464.44
2023-04-02T17:10:57.421Z,99468.27
2023-04-02T17:13:41.578Z,99473.11
2023-04-02T17:16:20.306Z,99477.45
2023-04-02T17:18:53.620Z,99484.67
2023-04-02T17:21:28.116Z,99489.63
2023-04-02T17:24:03.394Z,99486.85
2023-04-02T17:26:38.495Z,99497.00
2023-04-02T17:29:16.368Z,99499.21
2023-04-02T17:31:51.588Z,99500.05
2023-04-02T17:34:24.321Z,99502.84
2023-04-02T17:37:04.600Z,99502.00
2023-04-02T17:39:43.434Z,99507.23
2023-04-02T17:42:22.070Z,99509.52
2023-04-02T17:45:10.979Z,99506.08
2023-04-02T17:47:52.041Z,99514.14
2023-04-02T17:50:38.107Z,99517.20
2023-04-02T17:53:20.653Z,99522.25
2023-04-02T17:56:06.287Z,99529.70
2023-04-02T17:59:02.013Z,99529.77
2023-04-02T18:01:36.275Z,99530.78
2023-04-02T18:04:20.698Z,99530.77
2023-04-02T18:06:59.370Z,99536.07
2023-04-02T18:09:40.722Z,99535.96
2023-04-02T18:12:27.615Z,99538.02
2023-04-02T18:15:29.849Z,99542.70
2023-04-02T18:18:14.994Z,99551.13
2023-04-02T18:20:57.816Z,99545.16
2023-04-02T18:23:41.765Z,99549.86
2023-04-02T18:26:18.626Z,99557.83
2023-04-02T18:29:01.515Z,99560.81
2023-04-02T18:31:39.164Z,99561.57
2023-04-02T18:34:30.049Z,99572.93
2023-04-02T18:37:10.032Z,99573.23
2023-04-02T18:39:53.752Z,99577.58
2023-04-02T18:42:44.236Z,99575.92
2023-04-02T18:45:23.228Z,99580.27
2023-04-02T18:48:04.961Z,99589.58
2023-04-02T18:50:39.345Z,99589.63
2023-04-02T18:53:15.125Z,99590.13
2023-04-02T18:55:51.566Z,99590.76
2023-04-02T18:58:28.189Z,99590.69
2023-04-02T19:01:00.852Z,99589.39
2023-04-02T19:03:39.614Z,99593.21
2023-04-02T19:06:16.165Z,99595.52
2023-04-02T19:08:52.417Z,99598.17
2023-04-02T19:11:31.353Z,99604.66
2023-04-02T19:14:06.186Z,99603.36
2023-04-02T19:17:01.472Z,99607.00
2023-04-02T19:19:38.455Z,99610.84
2023-04-02T19:22:20.678Z,99614.92
2023-04-02T19:25:18.062Z,99615.67
2023-04-02T19:28:00.691Z,99618.89
2023-04-02T19:30:42.429Z,99612.54
2023-04-02T19:33:28.311Z,99618.42
2023-04-02T19:35:59.785Z,99624.30
2023-04-02T19:38:50.176Z,99625.63
2023-04-02T19:41:30.960Z,99629.83
2023-04-02T19:44:02.373Z,99630.33
2023-04-02T19:46:33.358Z,99630.59
2023-04-02T19:49:10.029Z,99631.95
2023-04-02T19:51:41.084Z,99632.91
2023-04-02T19:54:12.910Z,99631.88
2023-04-02T19:56:43.938Z,99631.36
2023-04-02T19:59:17.923Z,99633.80
2023-04-02T20:01:49.274Z,99634.79
2023-04-02T20:04:20.047Z,99635.02
2023-04-02T20:06:51.856Z,99632.89
2023-04-02T20:09:22.791Z,99630.77
2023-04-02T20:11:53.742Z,99632.95
2023-04-02T20:14:24.680Z,99636.25
2023-04-02T20:16:56.085Z,99635.63
2023-04-02T20:19:27.075Z,99638.27
2023-04-02T20:21:58.122Z,99636.50
2023-04-02T20:24:30.113Z,99641.42
2023-04-02T20:27:00.945Z,99642.52
2023-04-02T20:29:32.667Z,99643.92
2023-04-02T20:32:03.664Z,99645.70
2023-04-02T20:34:34.697Z,99651.33
2023-04-02T20:37:05.621Z,99650.64
2023-04-02T20:39:37.702Z,99654.42
2023-04-02T20:42:09.063Z,99659.56
2023-04-02T20:44:41.533Z,99659.36
2023-04-02T20:47:12.355Z,99659.89
2023-04-02T20:49:43.198Z,99655.35
2023-04-02T20:52:13.944Z,99658.89
2023-04-02T20:54:44.729Z,99663.96
2023-04-02T20:57:15.846Z,99665.05
2023-04-02T20:59:46.888Z,99665.84
2023-04-02T21:02:17.882Z,99663.82
2023-04-02T21:04:48.701Z,99672.19
2023-04-02T21:07:19.499Z,99675.75
2023-04-02T21:09:51.245Z,99677.75
2023-04-02T21:12:24.503Z,99679.50
2023-04-02T21:14:59.207Z,99682.19
2023-04-02T21:17:31.878Z,99679.92
2023-04-02T21:20:03.417Z,99681.66
2023-04-02T21:22:34.127Z,99682.63
2023-04-02T21:25:04.998Z,99683.62
2023-04-02T21:27:35.639Z,99683.14
2023-04-02T21:30:07.518Z,99685.31
2023-04-02T21:32:38.244Z,99683.71
2023-04-02T21:35:11.106Z,99683.67
2023-04-02T21:37:42.249Z,99687.87
2023-04-02T21:40:14.451Z,99691.73
2023-04-02T21:42:45.063Z,99691.63
2023-04-02T21:45:16.218Z,99687.50
2023-04-02T21:47:47.004Z,99687.79
2023-04-02T21:50:18.386Z,99695.20
2023-04-02T21:52:49.148Z,99694.28
2023-04-02T21:55:20.402Z,99695.85
2023-04-02T21:57:51.117Z,99696.27
2023-04-02T22:00:22.542Z,99696.45
2023-04-02T22:02:53.320Z,99694.63
2023-04-02T22:05:24.156Z,99697.16
2023-04-02T22:07:55.003Z,99701.58
2023-04-02T22:10:26.091Z,99701.81
2023-04-02T22:12:57.200Z,99704.58
2023-04-02T22:15:28.247Z,99706.49
2023-04-02T22:17:58.999Z,99705.53
2023-04-02T22:20:29.662Z,99704.66
2023-04-02T22:23:00.487Z,99708.04
2023-04-02T22:25:31.307Z,99707.02
2023-04-02T22:28:01.924Z,99708.39
2023-04-02T22:30:34.454Z,99712.91
2023-04-02T22:33:05.529Z,99715.22
2023-04-02T22:35:36.342Z,99721.31
2023-04-02T22:38:07.449Z,99718.61
2023-04-02T22:40:38.504Z,99715.48
2023-04-02T22:43:09.337Z,99721.41
2023-04-02T22:45:40.363Z,99720.19
2023-04-02T22:48:11.233Z,99718.27
2023-04-02T22:50:42.059Z,99722.58
2023-04-02T22:53:15.463Z,99722.77
2023-04-02T22:55:46.389Z,99727.80
2023-04-02T22:58:17.139Z,99727.76
2023-04-02T23:00:48.980Z,99730.56
2023-04-02T23:03:19.740Z,99732.80
2023-04-02T23:06:00.594Z,99728.79
2023-04-02T23:08:31.378Z,99730.63
2023-04-02T23:11:07.922Z,99734.72
2023-04-02T23:13:39.355Z,99731.02
2023-04-02T23:16:12.686Z,99735.79
2023-04-02T23:18:45.879Z,99738.25
2023-04-02T23:21:17.345Z,99740.95
2023-04-02T23:23:48.764Z,99740.38
2023-04-02T23:26:22.382Z,99737.40
2023-04-02T23:28:53.453Z,99739.45
2023-04-02T23:31:25.634Z,99741.44
2023-04-02T23:33:56.516Z,99745.26
2023-04-02T23:36:29.922Z,99749.52
2023-04-02T23:39:04.107Z,99748.73
2023-04-02T23:41:35.005Z,99750.63
2023-04-02T23:44:06.434Z,99745.27
2023-04-02T23:46:37.331Z,99743.66
2023-04-02T23:49:10.038Z,99743.67
2023-04-02T23:51:41.035Z,99745.41
2023-04-02T23:54:13.394Z,99744.49
2023-04-02T23:56:44.636Z,99744.14
2023-04-02T23:59:15.282Z,99747.13
